sensor_id;sensor_type;location;lat;lon;timestamp;P1;durP1;ratioP1;P2;durP2;ratioP2
74630;SDS011;63138;55.082;38.804;2022-09-09T00:01:08;9.77;;;5.57;;
74630;SDS011;63138;55.082;38.804;2022-09-09T00:03:52;9.70;;;5.10;;
74630;SDS011;63138;55.082;38.804;2022-09-09T00:09:09;10.52;;;5.50;;
74630;SDS011;63138;55.082;38.804;2022-09-09T00:16:53;8.68;;;4.72;;
74630;SDS011;63138;55.082;38.804;2022-09-09T00:19:27;11.17;;;5.97;;
74630;SDS011;63138;55.082;38.804;2022-09-09T00:22:00;12.57;;;6.95;;
74630;SDS011;63138;55.082;38.804;2022-09-09T00:24:32;11.52;;;6.28;;
74630;SDS011;63138;55.082;38.804;2022-09-09T00:27:21;15.52;;;7.57;;
74630;SDS011;63138;55.082;38.804;2022-09-09T00:29:56;15.32;;;7.55;;
74630;SDS011;63138;55.082;38.804;2022-09-09T00:32:28;11.10;;;6.90;;
74630;SDS011;63138;55.082;38.804;2022-09-09T00:35:00;15.15;;;8.02;;
74630;SDS011;63138;55.082;38.804;2022-09-09T00:37:30;12.27;;;7.60;;
74630;SDS011;63138;55.082;38.804;2022-09-09T00:39:59;14.10;;;7.85;;
74630;SDS011;63138;55.082;38.804;2022-09-09T00:42:34;14.30;;;7.72;;
74630;SDS011;63138;55.082;38.804;2022-09-09T00:48:01;20.63;;;7.72;;
74630;SDS011;63138;55.082;38.804;2022-09-09T00:50:40;14.23;;;7.68;;
74630;SDS011;63138;55.082;38.804;2022-09-09T00:58:30;12.37;;;6.90;;
74630;SDS011;63138;55.082;38.804;2022-09-09T01:03:35;11.40;;;6.80;;
74630;SDS011;63138;55.082;38.804;2022-09-09T01:06:11;12.68;;;6.53;;
74630;SDS011;63138;55.082;38.804;2022-09-09T01:17:05;9.88;;;5.45;;
74630;SDS011;63138;55.082;38.804;2022-09-09T01:22:33;9.17;;;4.90;;
74630;SDS011;63138;55.082;38.804;2022-09-09T01:28:05;14.00;;;5.35;;
74630;SDS011;63138;55.082;38.804;2022-09-09T01:30:37;9.20;;;4.95;;
74630;SDS011;63138;55.082;38.804;2022-09-09T01:33:10;8.18;;;4.88;;
74630;SDS011;63138;55.082;38.804;2022-09-09T01:35:46;7.87;;;4.53;;
74630;SDS011;63138;55.082;38.804;2022-09-09T01:38:21;12.68;;;5.78;;
74630;SDS011;63138;55.082;38.804;2022-09-09T01:40:51;9.85;;;5.18;;
74630;SDS011;63138;55.082;38.804;2022-09-09T01:43:21;9.07;;;4.85;;
74630;SDS011;63138;55.082;38.804;2022-09-09T01:45:48;8.70;;;4.63;;
74630;SDS011;63138;55.082;38.804;2022-09-09T01:48:18;10.27;;;4.97;;
74630;SDS011;63138;55.082;38.804;2022-09-09T01:50:50;10.95;;;5.13;;
74630;SDS011;63138;55.082;38.804;2022-09-09T01:53:17;8.48;;;4.68;;
74630;SDS011;63138;55.082;38.804;2022-09-09T01:58:27;8.23;;;4.45;;
74630;SDS011;63138;55.082;38.804;2022-09-09T02:01:03;7.77;;;4.63;;
74630;SDS011;63138;55.082;38.804;2022-09-09T02:03:39;11.07;;;5.82;;
74630;SDS011;63138;55.082;38.804;2022-09-09T02:08:46;10.02;;;5.38;;
74630;SDS011;63138;55.082;38.804;2022-09-09T02:11:17;6.60;;;3.88;;
74630;SDS011;63138;55.082;38.804;2022-09-09T02:13:51;11.67;;;4.97;;
74630;SDS011;63138;55.082;38.804;2022-09-09T02:16:25;9.23;;;4.72;;
74630;SDS011;63138;55.082;38.804;2022-09-09T02:19:06;7.50;;;4.50;;
74630;SDS011;63138;55.082;38.804;2022-09-09T02:21:54;9.60;;;5.05;;
74630;SDS011;63138;55.082;38.804;2022-09-09T02:24:23;7.78;;;5.00;;
74630;SDS011;63138;55.082;38.804;2022-09-09T02:27:01;10.27;;;5.13;;
74630;SDS011;63138;55.082;38.804;2022-09-09T02:29:31;9.80;;;4.53;;
74630;SDS011;63138;55.082;38.804;2022-09-09T02:32:01;8.93;;;4.82;;
74630;SDS011;63138;55.082;38.804;2022-09-09T02:34:35;9.10;;;4.85;;
74630;SDS011;63138;55.082;38.804;2022-09-09T02:37:06;9.55;;;5.30;;
74630;SDS011;63138;55.082;38.804;2022-09-09T02:39:35;8.13;;;5.10;;
74630;SDS011;63138;55.082;38.804;2022-09-09T02:42:03;10.65;;;4.97;;
74630;SDS011;63138;55.082;38.804;2022-09-09T02:44:31;10.23;;;5.15;;
74630;SDS011;63138;55.082;38.804;2022-09-09T02:52:11;10.30;;;5.57;;
74630;SDS011;63138;55.082;38.804;2022-09-09T02:54:44;7.22;;;4.85;;
74630;SDS011;63138;55.082;38.804;2022-09-09T02:57:22;8.52;;;4.80;;
74630;SDS011;63138;55.082;38.804;2022-09-09T02:59:51;12.18;;;5.35;;
74630;SDS011;63138;55.082;38.804;2022-09-09T03:02:20;8.40;;;5.07;;
74630;SDS011;63138;55.082;38.804;2022-09-09T03:04:50;11.07;;;5.50;;
74630;SDS011;63138;55.082;38.804;2022-09-09T03:07:17;7.05;;;4.70;;
74630;SDS011;63138;55.082;38.804;2022-09-09T03:09:45;6.80;;;4.20;;
74630;SDS011;63138;55.082;38.804;2022-09-09T03:12:11;7.95;;;5.72;;
74630;SDS011;63138;55.082;38.804;2022-09-09T03:14:38;7.40;;;4.70;;
74630;SDS011;63138;55.082;38.804;2022-09-09T03:17:04;7.03;;;4.63;;
74630;SDS011;63138;55.082;38.804;2022-09-09T03:19:36;7.65;;;5.00;;
74630;SDS011;63138;55.082;38.804;2022-09-09T03:22:04;8.85;;;5.15;;
74630;SDS011;63138;55.082;38.804;2022-09-09T03:24:32;7.93;;;4.57;;
74630;SDS011;63138;55.082;38.804;2022-09-09T03:26:57;10.07;;;4.30;;
74630;SDS011;63138;55.082;38.804;2022-09-09T03:29:23;7.68;;;4.57;;
74630;SDS011;63138;55.082;38.804;2022-09-09T03:31:53;7.95;;;4.53;;
74630;SDS011;63138;55.082;38.804;2022-09-09T03:34:19;7.77;;;4.87;;
74630;SDS011;63138;55.082;38.804;2022-09-09T03:36:45;7.57;;;4.38;;
74630;SDS011;63138;55.082;38.804;2022-09-09T03:39:11;8.57;;;4.30;;
74630;SDS011;63138;55.082;38.804;2022-09-09T03:41:40;9.65;;;5.40;;
74630;SDS011;63138;55.082;38.804;2022-09-09T03:44:06;7.20;;;4.57;;
74630;SDS011;63138;55.082;38.804;2022-09-09T03:46:37;10.32;;;3.88;;
74630;SDS011;63138;55.082;38.804;2022-09-09T03:49:03;6.65;;;4.07;;
74630;SDS011;63138;55.082;38.804;2022-09-09T03:51:30;6.25;;;3.25;;
74630;SDS011;63138;55.082;38.804;2022-09-09T03:53:56;5.97;;;3.60;;
74630;SDS011;63138;55.082;38.804;2022-09-09T03:56:25;7.00;;;3.33;;
74630;SDS011;63138;55.082;38.804;2022-09-09T03:58:51;6.35;;;3.25;;
74630;SDS011;63138;55.082;38.804;2022-09-09T04:01:17;6.57;;;3.42;;
74630;SDS011;63138;55.082;38.804;2022-09-09T04:03:44;5.93;;;3.35;;
74630;SDS011;63138;55.082;38.804;2022-09-09T04:06:11;6.95;;;3.85;;
74630;SDS011;63138;55.082;38.804;2022-09-09T04:08:39;5.67;;;3.27;;
74630;SDS011;63138;55.082;38.804;2022-09-09T04:11:07;5.13;;;3.30;;
74630;SDS011;63138;55.082;38.804;2022-09-09T04:13:34;4.78;;;2.88;;
74630;SDS011;63138;55.082;38.804;2022-09-09T04:16:03;6.80;;;3.33;;
74630;SDS011;63138;55.082;38.804;2022-09-09T04:18:29;7.13;;;3.17;;
74630;SDS011;63138;55.082;38.804;2022-09-09T04:20:56;6.43;;;3.43;;
74630;SDS011;63138;55.082;38.804;2022-09-09T04:23:25;4.95;;;2.65;;
74630;SDS011;63138;55.082;38.804;2022-09-09T04:25:56;5.75;;;2.95;;
74630;SDS011;63138;55.082;38.804;2022-09-09T04:28:28;5.80;;;3.05;;
74630;SDS011;63138;55.082;38.804;2022-09-09T04:31:03;8.10;;;2.90;;
74630;SDS011;63138;55.082;38.804;2022-09-09T04:33:35;6.07;;;3.00;;
74630;SDS011;63138;55.082;38.804;2022-09-09T04:36:01;4.63;;;2.92;;
74630;SDS011;63138;55.082;38.804;2022-09-09T04:38:28;5.10;;;2.95;;
74630;SDS011;63138;55.082;38.804;2022-09-09T04:40:54;5.30;;;3.15;;
74630;SDS011;63138;55.082;38.804;2022-09-09T04:43:20;4.70;;;2.50;;
74630;SDS011;63138;55.082;38.804;2022-09-09T04:45:48;4.83;;;2.77;;
74630;SDS011;63138;55.082;38.804;2022-09-09T04:48:15;5.28;;;3.10;;
74630;SDS011;63138;55.082;38.804;2022-09-09T04:50:43;6.32;;;3.35;;
74630;SDS011;63138;55.082;38.804;2022-09-09T04:53:11;3.55;;;2.28;;
74630;SDS011;63138;55.082;38.804;2022-09-09T04:55:37;5.82;;;3.08;;
74630;SDS011;63138;55.082;38.804;2022-09-09T04:58:04;4.33;;;2.80;;
74630;SDS011;63138;55.082;38.804;2022-09-09T05:00:32;6.35;;;2.88;;
74630;SDS011;63138;55.082;38.804;2022-09-09T05:03:04;5.60;;;2.63;;
74630;SDS011;63138;55.082;38.804;2022-09-09T05:05:31;6.00;;;2.10;;
74630;SDS011;63138;55.082;38.804;2022-09-09T05:08:05;5.60;;;2.43;;
74630;SDS011;63138;55.082;38.804;2022-09-09T05:10:34;5.05;;;2.50;;
74630;SDS011;63138;55.082;38.804;2022-09-09T05:13:03;6.60;;;2.85;;
74630;SDS011;63138;55.082;38.804;2022-09-09T05:15:30;5.80;;;2.67;;
74630;SDS011;63138;55.082;38.804;2022-09-09T05:17:57;3.88;;;1.70;;
74630;SDS011;63138;55.082;38.804;2022-09-09T05:20:28;5.43;;;2.47;;
74630;SDS011;63138;55.082;38.804;2022-09-09T05:22:55;4.97;;;2.28;;
74630;SDS011;63138;55.082;38.804;2022-09-09T05:25:24;5.90;;;2.45;;
74630;SDS011;63138;55.082;38.804;2022-09-09T05:27:52;8.13;;;2.70;;
74630;SDS011;63138;55.082;38.804;2022-09-09T05:30:19;5.07;;;2.33;;
74630;SDS011;63138;55.082;38.804;2022-09-09T05:32:45;4.17;;;1.97;;
74630;SDS011;63138;55.082;38.804;2022-09-09T05:35:12;5.85;;;2.20;;
74630;SDS011;63138;55.082;38.804;2022-09-09T05:37:38;3.58;;;2.47;;
74630;SDS011;63138;55.082;38.804;2022-09-09T05:40:05;3.35;;;1.90;;
74630;SDS011;63138;55.082;38.804;2022-09-09T05:42:31;6.68;;;2.47;;
74630;SDS011;63138;55.082;38.804;2022-09-09T05:44:58;5.33;;;2.17;;
74630;SDS011;63138;55.082;38.804;2022-09-09T05:47:24;3.30;;;1.90;;
74630;SDS011;63138;55.082;38.804;2022-09-09T05:49:53;3.10;;;2.10;;
74630;SDS011;63138;55.082;38.804;2022-09-09T05:52:20;3.75;;;2.25;;
74630;SDS011;63138;55.082;38.804;2022-09-09T05:54:46;4.37;;;3.03;;
74630;SDS011;63138;55.082;38.804;2022-09-09T05:57:11;5.82;;;3.70;;
74630;SDS011;63138;55.082;38.804;2022-09-09T05:59:37;3.47;;;3.17;;
74630;SDS011;63138;55.082;38.804;2022-09-09T06:02:03;4.78;;;3.78;;
74630;SDS011;63138;55.082;38.804;2022-09-09T06:04:33;3.90;;;3.38;;
74630;SDS011;63138;55.082;38.804;2022-09-09T06:07:01;4.18;;;3.10;;
74630;SDS011;63138;55.082;38.804;2022-09-09T06:09:27;4.70;;;3.95;;
74630;SDS011;63138;55.082;38.804;2022-09-09T06:11:52;5.00;;;3.60;;
74630;SDS011;63138;55.082;38.804;2022-09-09T06:14:21;4.20;;;3.78;;
74630;SDS011;63138;55.082;38.804;2022-09-09T06:16:48;3.92;;;3.28;;
74630;SDS011;63138;55.082;38.804;2022-09-09T06:19:20;4.10;;;3.23;;
74630;SDS011;63138;55.082;38.804;2022-09-09T06:21:47;3.70;;;3.40;;
74630;SDS011;63138;55.082;38.804;2022-09-09T06:24:13;8.98;;;3.65;;
74630;SDS011;63138;55.082;38.804;2022-09-09T06:26:42;4.97;;;3.90;;
74630;SDS011;63138;55.082;38.804;2022-09-09T06:29:16;4.47;;;3.45;;
74630;SDS011;63138;55.082;38.804;2022-09-09T06:31:42;8.03;;;3.40;;
74630;SDS011;63138;55.082;38.804;2022-09-09T06:34:20;4.38;;;3.70;;
74630;SDS011;63138;55.082;38.804;2022-09-09T06:36:49;4.60;;;3.40;;
74630;SDS011;63138;55.082;38.804;2022-09-09T06:39:15;4.97;;;4.03;;
74630;SDS011;63138;55.082;38.804;2022-09-09T06:41:42;3.80;;;3.40;;
74630;SDS011;63138;55.082;38.804;2022-09-09T06:44:18;3.80;;;3.50;;
74630;SDS011;63138;55.082;38.804;2022-09-09T06:46:44;4.97;;;4.00;;
74630;SDS011;63138;55.082;38.804;2022-09-09T06:49:13;3.92;;;3.42;;
74630;SDS011;63138;55.082;38.804;2022-09-09T06:51:40;4.07;;;3.58;;
74630;SDS011;63138;55.082;38.804;2022-09-09T06:54:09;3.80;;;3.50;;
74630;SDS011;63138;55.082;38.804;2022-09-09T06:56:39;3.90;;;3.50;;
74630;SDS011;63138;55.082;38.804;2022-09-09T06:59:11;3.35;;;2.20;;
74630;SDS011;63138;55.082;38.804;2022-09-09T07:01:38;4.32;;;4.03;;
74630;SDS011;63138;55.082;38.804;2022-09-09T07:04:15;2.83;;;1.70;;
74630;SDS011;63138;55.082;38.804;2022-09-09T07:06:43;2.93;;;1.70;;
74630;SDS011;63138;55.082;38.804;2022-09-09T07:09:15;2.85;;;1.58;;
74630;SDS011;63138;55.082;38.804;2022-09-09T07:11:47;2.55;;;1.30;;
74630;SDS011;63138;55.082;38.804;2022-09-09T07:14:17;2.92;;;1.80;;
74630;SDS011;63138;55.082;38.804;2022-09-09T07:16:46;3.95;;;1.40;;
74630;SDS011;63138;55.082;38.804;2022-09-09T07:19:13;3.40;;;1.63;;
74630;SDS011;63138;55.082;38.804;2022-09-09T07:21:41;4.85;;;2.13;;
74630;SDS011;63138;55.082;38.804;2022-09-09T07:24:08;3.92;;;1.65;;
74630;SDS011;63138;55.082;38.804;2022-09-09T07:26:37;5.47;;;2.00;;
74630;SDS011;63138;55.082;38.804;2022-09-09T07:29:04;2.50;;;1.60;;
74630;SDS011;63138;55.082;38.804;2022-09-09T07:31:31;3.40;;;2.20;;
74630;SDS011;63138;55.082;38.804;2022-09-09T07:34:01;2.55;;;1.40;;
74630;SDS011;63138;55.082;38.804;2022-09-09T07:36:29;2.75;;;1.45;;
74630;SDS011;63138;55.082;38.804;2022-09-09T07:38:57;2.30;;;1.23;;
74630;SDS011;63138;55.082;38.804;2022-09-09T07:41:31;3.17;;;2.47;;
74630;SDS011;63138;55.082;38.804;2022-09-09T07:44:07;3.30;;;3.00;;
74630;SDS011;63138;55.082;38.804;2022-09-09T07:46:37;3.83;;;3.47;;
74630;SDS011;63138;55.082;38.804;2022-09-09T07:49:07;4.90;;;3.88;;
74630;SDS011;63138;55.082;38.804;2022-09-09T07:51:34;6.05;;;4.40;;
74630;SDS011;63138;55.082;38.804;2022-09-09T07:54:04;4.68;;;4.10;;
74630;SDS011;63138;55.082;38.804;2022-09-09T07:56:32;2.90;;;1.70;;
74630;SDS011;63138;55.082;38.804;2022-09-09T07:58:59;3.13;;;1.70;;
74630;SDS011;63138;55.082;38.804;2022-09-09T08:01:30;3.90;;;1.70;;
74630;SDS011;63138;55.082;38.804;2022-09-09T08:03:59;3.58;;;1.80;;
74630;SDS011;63138;55.082;38.804;2022-09-09T08:06:28;3.30;;;1.73;;
74630;SDS011;63138;55.082;38.804;2022-09-09T08:08:55;3.40;;;2.10;;
74630;SDS011;63138;55.082;38.804;2022-09-09T08:11:23;3.67;;;2.78;;
74630;SDS011;63138;55.082;38.804;2022-09-09T08:13:50;4.35;;;2.53;;
74630;SDS011;63138;55.082;38.804;2022-09-09T08:16:18;3.30;;;1.80;;
74630;SDS011;63138;55.082;38.804;2022-09-09T08:18:48;11.23;;;3.95;;
74630;SDS011;63138;55.082;38.804;2022-09-09T08:21:16;5.83;;;5.17;;
74630;SDS011;63138;55.082;38.804;2022-09-09T08:23:45;3.83;;;2.63;;
74630;SDS011;63138;55.082;38.804;2022-09-09T08:26:13;3.25;;;1.80;;
74630;SDS011;63138;55.082;38.804;2022-09-09T08:28:47;3.10;;;1.40;;
74630;SDS011;63138;55.082;38.804;2022-09-09T08:31:24;2.50;;;1.60;;
74630;SDS011;63138;55.082;38.804;2022-09-09T08:33:54;3.60;;;1.70;;
74630;SDS011;63138;55.082;38.804;2022-09-09T08:36:22;3.03;;;1.63;;
74630;SDS011;63138;55.082;38.804;2022-09-09T08:38:50;2.97;;;1.60;;
74630;SDS011;63138;55.082;38.804;2022-09-09T08:47:04;2.90;;;1.60;;
74630;SDS011;63138;55.082;38.804;2022-09-09T08:58:34;3.35;;;1.60;;
74630;SDS011;63138;55.082;38.804;2022-09-09T09:01:17;4.20;;;1.70;;
74630;SDS011;63138;55.082;38.804;2022-09-09T09:12:25;3.08;;;2.20;;
74630;SDS011;63138;55.082;38.804;2022-09-09T09:14:55;3.27;;;1.83;;
74630;SDS011;63138;55.082;38.804;2022-09-09T09:17:23;4.60;;;3.67;;
74630;SDS011;63138;55.082;38.804;2022-09-09T09:19:52;3.20;;;2.75;;
74630;SDS011;63138;55.082;38.804;2022-09-09T09:22:19;2.60;;;1.80;;
74630;SDS011;63138;55.082;38.804;2022-09-09T09:27:32;3.03;;;2.30;;
74630;SDS011;63138;55.082;38.804;2022-09-09T09:30:23;3.22;;;1.80;;
74630;SDS011;63138;55.082;38.804;2022-09-09T09:32:58;2.83;;;2.53;;
74630;SDS011;63138;55.082;38.804;2022-09-09T09:35:32;3.85;;;2.67;;
74630;SDS011;63138;55.082;38.804;2022-09-09T09:37:58;3.88;;;2.50;;
74630;SDS011;63138;55.082;38.804;2022-09-09T09:40:27;3.03;;;2.73;;
74630;SDS011;63138;55.082;38.804;2022-09-09T09:42:54;3.40;;;2.63;;
74630;SDS011;63138;55.082;38.804;2022-09-09T09:45:29;4.13;;;2.60;;
74630;SDS011;63138;55.082;38.804;2022-09-09T09:48:02;2.75;;;1.95;;
74630;SDS011;63138;55.082;38.804;2022-09-09T09:50:40;3.15;;;2.70;;
74630;SDS011;63138;55.082;38.804;2022-09-09T09:55:57;4.25;;;2.40;;
74630;SDS011;63138;55.082;38.804;2022-09-09T09:58:26;3.40;;;2.50;;
74630;SDS011;63138;55.082;38.804;2022-09-09T10:00:56;3.35;;;2.58;;
74630;SDS011;63138;55.082;38.804;2022-09-09T10:03:28;3.92;;;2.15;;
74630;SDS011;63138;55.082;38.804;2022-09-09T10:06:03;2.80;;;1.80;;
74630;SDS011;63138;55.082;38.804;2022-09-09T10:08:29;3.50;;;2.78;;
74630;SDS011;63138;55.082;38.804;2022-09-09T10:16:40;3.65;;;1.40;;
74630;SDS011;63138;55.082;38.804;2022-09-09T10:33:00;2.47;;;1.40;;
74630;SDS011;63138;55.082;38.804;2022-09-09T10:38:29;4.55;;;1.80;;
74630;SDS011;63138;55.082;38.804;2022-09-09T10:41:14;3.00;;;2.15;;
74630;SDS011;63138;55.082;38.804;2022-09-09T10:54:56;3.88;;;1.83;;
74630;SDS011;63138;55.082;38.804;2022-09-09T11:00:17;3.50;;;1.30;;
74630;SDS011;63138;55.082;38.804;2022-09-09T11:02:47;4.00;;;1.50;;
74630;SDS011;63138;55.082;38.804;2022-09-09T11:08:09;3.70;;;1.65;;
74630;SDS011;63138;55.082;38.804;2022-09-09T11:10:44;2.40;;;1.60;;
74630;SDS011;63138;55.082;38.804;2022-09-09T11:13:24;3.30;;;1.90;;
74630;SDS011;63138;55.082;38.804;2022-09-09T11:16:00;2.70;;;1.40;;
74630;SDS011;63138;55.082;38.804;2022-09-09T11:18:41;3.30;;;1.40;;
74630;SDS011;63138;55.082;38.804;2022-09-09T11:21:14;3.88;;;1.90;;
74630;SDS011;63138;55.082;38.804;2022-09-09T11:23:48;3.67;;;1.50;;
74630;SDS011;63138;55.082;38.804;2022-09-09T11:26:25;4.23;;;1.60;;
74630;SDS011;63138;55.082;38.804;2022-09-09T11:31:45;2.50;;;1.60;;
74630;SDS011;63138;55.082;38.804;2022-09-09T11:34:27;4.22;;;2.10;;
74630;SDS011;63138;55.082;38.804;2022-09-09T11:45:53;3.13;;;1.70;;
74630;SDS011;63138;55.082;38.804;2022-09-09T11:51:25;2.60;;;1.65;;
74630;SDS011;63138;55.082;38.804;2022-09-09T11:53:56;2.93;;;1.83;;
74630;SDS011;63138;55.082;38.804;2022-09-09T11:59:04;2.80;;;1.80;;
74630;SDS011;63138;55.082;38.804;2022-09-09T12:01:42;2.65;;;1.58;;
74630;SDS011;63138;55.082;38.804;2022-09-09T12:06:45;4.57;;;1.80;;
74630;SDS011;63138;55.082;38.804;2022-09-09T12:12:07;2.97;;;1.50;;
74630;SDS011;63138;55.082;38.804;2022-09-09T12:17:45;3.53;;;1.42;;
74630;SDS011;63138;55.082;38.804;2022-09-09T12:20:13;3.80;;;1.73;;
74630;SDS011;63138;55.082;38.804;2022-09-09T12:31:10;2.47;;;1.30;;
74630;SDS011;63138;55.082;38.804;2022-09-09T12:33:43;3.80;;;1.63;;
74630;SDS011;63138;55.082;38.804;2022-09-09T12:36:13;3.25;;;1.73;;
74630;SDS011;63138;55.082;38.804;2022-09-09T12:38:42;3.75;;;1.67;;
74630;SDS011;63138;55.082;38.804;2022-09-09T12:41:22;3.17;;;1.30;;
74630;SDS011;63138;55.082;38.804;2022-09-09T12:44:02;3.85;;;1.70;;
74630;SDS011;63138;55.082;38.804;2022-09-09T12:46:40;4.40;;;1.80;;
74630;SDS011;63138;55.082;38.804;2022-09-09T12:51:53;3.22;;;1.73;;
74630;SDS011;63138;55.082;38.804;2022-09-09T12:54:19;3.08;;;1.92;;
74630;SDS011;63138;55.082;38.804;2022-09-09T12:56:46;3.17;;;1.67;;
74630;SDS011;63138;55.082;38.804;2022-09-09T12:59:24;2.70;;;1.40;;
74630;SDS011;63138;55.082;38.804;2022-09-09T13:02:44;3.72;;;1.40;;
74630;SDS011;63138;55.082;38.804;2022-09-09T13:05:05;3.10;;;1.42;;
74630;SDS011;63138;55.082;38.804;2022-09-09T13:07:38;4.18;;;1.55;;
74630;SDS011;63138;55.082;38.804;2022-09-09T13:10:04;3.00;;;1.20;;
74630;SDS011;63138;55.082;38.804;2022-09-09T13:12:30;2.58;;;1.27;;
74630;SDS011;63138;55.082;38.804;2022-09-09T13:14:56;5.07;;;1.63;;
74630;SDS011;63138;55.082;38.804;2022-09-09T13:17:26;3.60;;;1.60;;
74630;SDS011;63138;55.082;38.804;2022-09-09T13:19:55;5.97;;;1.80;;
74630;SDS011;63138;55.082;38.804;2022-09-09T13:22:43;3.17;;;1.45;;
74630;SDS011;63138;55.082;38.804;2022-09-09T13:27:38;4.40;;;2.10;;
74630;SDS011;63138;55.082;38.804;2022-09-09T13:33:01;3.65;;;1.42;;
74630;SDS011;63138;55.082;38.804;2022-09-09T13:36:01;4.45;;;2.00;;
74630;SDS011;63138;55.082;38.804;2022-09-09T13:38:40;3.33;;;1.23;;
74630;SDS011;63138;55.082;38.804;2022-09-09T13:41:23;3.10;;;1.55;;
74630;SDS011;63138;55.082;38.804;2022-09-09T13:43:51;4.47;;;1.50;;
74630;SDS011;63138;55.082;38.804;2022-09-09T13:46:25;6.80;;;1.50;;
74630;SDS011;63138;55.082;38.804;2022-09-09T13:49:18;3.97;;;1.70;;
74630;SDS011;63138;55.082;38.804;2022-09-09T13:51:47;3.45;;;1.17;;
74630;SDS011;63138;55.082;38.804;2022-09-09T13:54:16;4.38;;;2.05;;
74630;SDS011;63138;55.082;38.804;2022-09-09T13:56:44;3.47;;;1.50;;
74630;SDS011;63138;55.082;38.804;2022-09-09T13:59:14;3.20;;;1.60;;
74630;SDS011;63138;55.082;38.804;2022-09-09T14:01:41;3.22;;;1.75;;
74630;SDS011;63138;55.082;38.804;2022-09-09T14:04:08;3.28;;;1.40;;
74630;SDS011;63138;55.082;38.804;2022-09-09T14:06:36;3.25;;;1.58;;
74630;SDS011;63138;55.082;38.804;2022-09-09T14:09:09;5.50;;;1.50;;
74630;SDS011;63138;55.082;38.804;2022-09-09T14:11:37;3.28;;;1.40;;
74630;SDS011;63138;55.082;38.804;2022-09-09T14:14:06;2.70;;;1.30;;
74630;SDS011;63138;55.082;38.804;2022-09-09T14:16:32;4.45;;;1.50;;
74630;SDS011;63138;55.082;38.804;2022-09-09T14:18:58;2.85;;;1.27;;
74630;SDS011;63138;55.082;38.804;2022-09-09T14:21:29;3.87;;;2.27;;
74630;SDS011;63138;55.082;38.804;2022-09-09T14:23:55;3.35;;;1.38;;
74630;SDS011;63138;55.082;38.804;2022-09-09T14:26:23;4.60;;;1.33;;
74630;SDS011;63138;55.082;38.804;2022-09-09T14:28:49;3.13;;;1.30;;
74630;SDS011;63138;55.082;38.804;2022-09-09T14:31:17;2.60;;;1.30;;
74630;SDS011;63138;55.082;38.804;2022-09-09T14:33:43;3.30;;;1.40;;
74630;SDS011;63138;55.082;38.804;2022-09-09T14:36:10;4.75;;;1.50;;
74630;SDS011;63138;55.082;38.804;2022-09-09T14:38:36;2.85;;;1.50;;
74630;SDS011;63138;55.082;38.804;2022-09-09T14:41:07;3.33;;;1.33;;
74630;SDS011;63138;55.082;38.804;2022-09-09T14:43:40;5.90;;;1.60;;
74630;SDS011;63138;55.082;38.804;2022-09-09T14:46:10;4.38;;;1.23;;
74630;SDS011;63138;55.082;38.804;2022-09-09T14:48:37;5.13;;;1.40;;
74630;SDS011;63138;55.082;38.804;2022-09-09T14:51:06;3.63;;;1.38;;
74630;SDS011;63138;55.082;38.804;2022-09-09T14:53:38;6.97;;;1.70;;
74630;SDS011;63138;55.082;38.804;2022-09-09T14:56:05;4.27;;;1.93;;
74630;SDS011;63138;55.082;38.804;2022-09-09T14:58:34;5.32;;;1.50;;
74630;SDS011;63138;55.082;38.804;2022-09-09T15:01:02;3.70;;;1.65;;
74630;SDS011;63138;55.082;38.804;2022-09-09T15:03:29;4.10;;;2.00;;
74630;SDS011;63138;55.082;38.804;2022-09-09T15:05:55;4.05;;;1.98;;
74630;SDS011;63138;55.082;38.804;2022-09-09T15:08:24;7.17;;;2.87;;
74630;SDS011;63138;55.082;38.804;2022-09-09T15:10:58;6.05;;;2.72;;
74630;SDS011;63138;55.082;38.804;2022-09-09T15:13:25;5.43;;;2.65;;
74630;SDS011;63138;55.082;38.804;2022-09-09T15:15:51;5.63;;;2.90;;
74630;SDS011;63138;55.082;38.804;2022-09-09T15:18:16;5.32;;;2.40;;
74630;SDS011;63138;55.082;38.804;2022-09-09T15:20:45;8.18;;;2.10;;
74630;SDS011;63138;55.082;38.804;2022-09-09T15:23:12;4.00;;;2.40;;
74630;SDS011;63138;55.082;38.804;2022-09-09T15:25:49;4.18;;;1.88;;
74630;SDS011;63138;55.082;38.804;2022-09-09T15:28:19;4.60;;;1.90;;
74630;SDS011;63138;55.082;38.804;2022-09-09T15:30:49;4.97;;;2.47;;
74630;SDS011;63138;55.082;38.804;2022-09-09T15:33:18;3.63;;;1.85;;
74630;SDS011;63138;55.082;38.804;2022-09-09T15:35:44;4.63;;;1.90;;
74630;SDS011;63138;55.082;38.804;2022-09-09T15:38:10;5.22;;;2.03;;
74630;SDS011;63138;55.082;38.804;2022-09-09T15:40:38;5.03;;;1.92;;
74630;SDS011;63138;55.082;38.804;2022-09-09T15:43:06;5.00;;;2.10;;
74630;SDS011;63138;55.082;38.804;2022-09-09T15:45:32;6.13;;;4.25;;
74630;SDS011;63138;55.082;38.804;2022-09-09T15:48:04;6.33;;;2.27;;
74630;SDS011;63138;55.082;38.804;2022-09-09T15:50:33;4.30;;;2.42;;
74630;SDS011;63138;55.082;38.804;2022-09-09T15:52:59;5.10;;;2.25;;
74630;SDS011;63138;55.082;38.804;2022-09-09T15:55:25;4.78;;;2.00;;
74630;SDS011;63138;55.082;38.804;2022-09-09T15:57:51;5.23;;;2.40;;
74630;SDS011;63138;55.082;38.804;2022-09-09T16:00:18;5.90;;;3.05;;
74630;SDS011;63138;55.082;38.804;2022-09-09T16:02:48;5.88;;;3.03;;
74630;SDS011;63138;55.082;38.804;2022-09-09T16:05:14;6.03;;;2.65;;
74630;SDS011;63138;55.082;38.804;2022-09-09T16:07:40;6.60;;;2.55;;
74630;SDS011;63138;55.082;38.804;2022-09-09T16:10:08;6.57;;;3.00;;
74630;SDS011;63138;55.082;38.804;2022-09-09T16:12:34;5.18;;;2.70;;
74630;SDS011;63138;55.082;38.804;2022-09-09T16:15:03;7.88;;;3.38;;
74630;SDS011;63138;55.082;38.804;2022-09-09T16:17:37;7.45;;;2.85;;
74630;SDS011;63138;55.082;38.804;2022-09-09T16:20:03;11.27;;;6.15;;
74630;SDS011;63138;55.082;38.804;2022-09-09T16:22:32;9.27;;;5.03;;
74630;SDS011;63138;55.082;38.804;2022-09-09T16:24:58;9.10;;;4.38;;
74630;SDS011;63138;55.082;38.804;2022-09-09T16:27:25;8.70;;;3.80;;
74630;SDS011;63138;55.082;38.804;2022-09-09T16:29:51;14.57;;;6.15;;
74630;SDS011;63138;55.082;38.804;2022-09-09T16:32:18;12.13;;;5.93;;
74630;SDS011;63138;55.082;38.804;2022-09-09T16:34:45;8.00;;;3.83;;
74630;SDS011;63138;55.082;38.804;2022-09-09T16:37:12;8.35;;;3.55;;
74630;SDS011;63138;55.082;38.804;2022-09-09T16:39:38;9.40;;;3.50;;
74630;SDS011;63138;55.082;38.804;2022-09-09T16:42:04;8.60;;;3.35;;
74630;SDS011;63138;55.082;38.804;2022-09-09T16:44:30;8.52;;;3.78;;
74630;SDS011;63138;55.082;38.804;2022-09-09T16:46:56;7.53;;;3.43;;
74630;SDS011;63138;55.082;38.804;2022-09-09T16:49:22;5.55;;;2.90;;
74630;SDS011;63138;55.082;38.804;2022-09-09T16:51:49;5.85;;;2.97;;
74630;SDS011;63138;55.082;38.804;2022-09-09T16:54:19;8.07;;;3.20;;
74630;SDS011;63138;55.082;38.804;2022-09-09T16:56:47;5.80;;;3.27;;
74630;SDS011;63138;55.082;38.804;2022-09-09T16:59:14;11.05;;;3.30;;
74630;SDS011;63138;55.082;38.804;2022-09-09T17:01:43;8.38;;;3.97;;
74630;SDS011;63138;55.082;38.804;2022-09-09T17:04:11;8.95;;;3.60;;
74630;SDS011;63138;55.082;38.804;2022-09-09T17:06:41;22.17;;;10.80;;
74630;SDS011;63138;55.082;38.804;2022-09-09T17:09:10;55.63;;;26.07;;
74630;SDS011;63138;55.082;38.804;2022-09-09T17:11:39;50.47;;;22.27;;
74630;SDS011;63138;55.082;38.804;2022-09-09T17:14:07;48.88;;;20.05;;
74630;SDS011;63138;55.082;38.804;2022-09-09T17:16:35;30.55;;;12.85;;
74630;SDS011;63138;55.082;38.804;2022-09-09T17:19:02;17.58;;;8.73;;
74630;SDS011;63138;55.082;38.804;2022-09-09T17:21:29;17.37;;;8.57;;
74630;SDS011;63138;55.082;38.804;2022-09-09T17:23:56;16.80;;;7.80;;